Time;durP1;ratioP1;P1;durP2;ratioP2;P2;SDS_P1;SDS_P2;PMS_P1;PMS_P2;Temp;Humidity;BMP_temperature;BMP_pressure;BME280_temperature;BME280_humidity;BME280_pressure;Samples;Min_cycle;Max_cycle;Signal;HPM_P1;HPM_P2
2022/01/29 00:00:49;;;;;;;;;14.20;14.20;;;;;10.79;60.36;102960.50;2056052;28;47372;-59
2022/01/29 00:01:49;;;;;;;;;19.00;17.50;;;;;10.79;59.98;102968.47;2048223;28;47283;-60
2022/01/29 00:02:50;;;;;;;;;18.75;17.75;;;;;10.79;60.50;102957.84;2048051;28;47928;-60
2022/01/29 00:03:50;;;;;;;;;20.25;17.50;;;;;10.81;60.20;102957.91;2056875;28;46990;-62
2022/01/29 00:04:51;;;;;;;;;18.75;17.75;;;;;10.80;60.40;102956.13;2056247;28;47225;-65
2022/01/29 00:05:52;;;;;;;;;19.00;16.75;;;;;10.79;60.62;102955.19;2056539;28;46252;-60
2022/01/29 00:06:53;;;;;;;;;17.80;17.80;;;;;10.79;60.26;102959.63;2056564;28;47825;-60
2022/01/29 00:07:53;;;;;;;;;15.75;14.50;;;;;10.80;60.46;102956.13;2056540;28;47024;-60
2022/01/29 00:08:56;;;;;;;;;17.25;16.50;;;;;10.80;60.24;102953.47;2055888;28;47187;-60
2022/01/29 00:10:02;;;;;;;;;13.40;13.40;;;;;10.80;60.45;102957.00;2056613;28;47723;-61
2022/01/29 00:11:10;;;;;;;;;19.60;17.60;;;;;10.81;60.25;102949.94;2056915;28;47623;-60
2022/01/29 00:12:11;;;;;;;;;20.40;17.80;;;;;10.80;60.40;102951.69;2056899;28;47283;-61
2022/01/29 00:13:11;;;;;;;;;14.75;14.50;;;;;10.81;60.16;102955.25;2057109;28;47687;-61
2022/01/29 00:14:12;;;;;;;;;19.00;16.75;;;;;10.81;60.48;102956.13;2056549;28;47615;-61
2022/01/29 00:15:12;;;;;;;;;17.75;16.50;;;;;10.80;60.42;102942.84;2056046;28;47119;-64
2022/01/29 00:16:13;;;;;;;;;15.25;15.00;;;;;10.81;60.49;102948.16;2056608;28;47126;-60
2022/01/29 00:17:13;;;;;;;;;18.50;17.00;;;;;10.81;60.31;102953.47;2057609;28;47138;-60
2022/01/29 00:18:14;;;;;;;;;14.25;13.75;;;;;10.82;60.17;102951.72;2056501;28;47158;-61
2022/01/29 00:19:14;;;;;;;;;16.50;14.75;;;;;10.81;60.35;102945.50;2055492;28;47503;-61
2022/01/29 00:20:14;;;;;;;;;15.75;15.75;;;;;10.82;60.25;102944.63;2056165;28;47426;-61
2022/01/29 00:21:15;;;;;;;;;15.25;15.25;;;;;10.82;60.40;102941.09;2057255;28;47312;-61
2022/01/29 00:22:15;;;;;;;;;20.00;18.50;;;;;10.82;60.46;102936.66;2056525;28;46861;-62
2022/01/29 00:23:16;;;;;;;;;14.00;13.00;;;;;10.84;60.21;102937.56;2056575;28;47587;-61
2022/01/29 00:24:16;;;;;;;;;18.50;15.75;;;;;10.83;60.30;102932.25;2057059;28;47168;-60
2022/01/29 00:25:17;;;;;;;;;12.25;12.25;;;;;10.83;60.62;102932.25;2056345;28;46918;-60
2022/01/29 00:26:21;;;;;;;;;17.25;15.25;;;;;10.83;60.21;102937.56;2056382;28;47336;-60
2022/01/29 00:27:22;;;;;;;;;12.80;11.00;;;;;10.84;60.23;102936.69;2056320;28;47304;-59
2022/01/29 00:28:23;;;;;;;;;14.80;13.60;;;;;10.83;60.11;102930.47;2056634;28;45732;-60
2022/01/29 00:29:23;;;;;;;;;17.00;14.00;;;;;10.82;60.17;102930.47;2057443;28;47606;-60
2022/01/29 00:30:30;;;;;;;;;15.50;15.50;;;;;10.81;60.16;102934.88;2056447;28;47677;-60
2022/01/29 00:31:31;;;;;;;;;16.20;15.20;;;;;10.81;59.98;102923.38;2056377;28;46428;-60
2022/01/29 00:32:31;;;;;;;;;18.75;16.50;;;;;10.81;60.05;102928.69;2056653;28;46409;-60
2022/01/29 00:33:32;;;;;;;;;17.75;17.75;;;;;10.80;59.98;102918.94;2057085;28;46837;-60
2022/01/29 00:34:32;;;;;;;;;14.50;14.50;;;;;10.80;59.97;102925.13;2056954;28;47305;-62
2022/01/29 00:35:33;;;;;;;;;14.50;13.00;;;;;10.79;60.16;102919.78;2056550;28;47589;-63
2022/01/29 00:36:33;;;;;;;;;17.25;14.00;;;;;10.79;60.18;102919.78;2056287;28;47331;-60
2022/01/29 00:37:34;;;;;;;;;13.67;12.00;;;;;10.79;60.19;102920.66;2056370;28;47628;-59
2022/01/29 00:38:35;;;;;;;;;17.75;17.75;;;;;10.79;60.14;102914.47;2056365;28;46888;-62
2022/01/29 00:39:36;;;;;;;;;18.80;16.20;;;;;10.78;60.10;102910.03;2056780;28;47169;-63
2022/01/29 00:40:37;;;;;;;;;15.40;13.80;;;;;10.79;60.20;102919.78;2056147;28;48130;-60
2022/01/29 00:41:37;;;;;;;;;17.80;16.80;;;;;10.78;60.35;102918.00;2056269;28;47352;-61
2022/01/29 00:42:38;;;;;;;;;14.25;12.50;;;;;10.77;60.31;102914.44;2056528;28;47716;-60
2022/01/29 00:43:38;;;;;;;;;17.50;16.25;;;;;10.76;60.44;102910.00;2056717;28;47987;-61
2022/01/29 00:44:39;;;;;;;;;15.75;15.75;;;;;10.76;60.34;102910.00;2056277;28;47256;-62
2022/01/29 00:45:39;;;;;;;;;17.75;17.75;;;;;10.76;60.41;102915.31;2056295;28;47312;-60
2022/01/29 00:46:41;;;;;;;;;17.25;16.25;;;;;10.75;60.18;102910.88;2056116;28;47484;-60
2022/01/29 00:47:42;;;;;;;;;8.20;8.00;;;;;10.76;60.14;102910.00;2056498;28;46693;-61
2022/01/29 00:48:42;;;;;;;;;15.00;15.00;;;;;10.75;60.29;102908.22;2056593;28;47158;-61
2022/01/29 00:49:44;;;;;;;;;11.00;10.50;;;;;10.75;60.26;102910.00;2056276;28;47700;-63
2022/01/29 00:50:44;;;;;;;;;17.40;16.40;;;;;10.73;60.35;102907.31;2056603;28;47474;-61
2022/01/29 00:51:44;;;;;;;;;10.00;9.50;;;;;10.73;60.38;102903.78;2056932;28;47566;-60
2022/01/29 00:52:47;;;;;;;;;16.75;15.50;;;;;10.72;60.16;102902.00;2056174;28;47113;-60
2022/01/29 00:53:47;;;;;;;;;18.00;17.80;;;;;10.73;60.31;102909.09;2054331;28;46418;-60
2022/01/29 00:54:47;;;;;;;;;21.00;20.25;;;;;10.73;60.26;102903.78;2053741;28;45509;-60
2022/01/29 00:55:48;;;;;;;;;14.50;14.00;;;;;10.72;60.59;102902.00;2055634;28;46621;-61
2022/01/29 00:56:49;;;;;;;;;15.75;15.00;;;;;10.70;60.28;102896.66;2053351;28;47459;-62
2022/01/29 00:57:49;;;;;;;;;17.50;16.25;;;;;10.71;60.45;102893.13;2056692;28;47579;-59
2022/01/29 00:58:49;;;;;;;;;15.25;14.00;;;;;10.71;60.36;102895.78;2056713;28;47260;-60
2022/01/29 00:59:50;;;;;;;;;13.50;12.25;;;;;10.72;60.29;102889.59;2056264;28;47546;-60
2022/01/29 01:00:50;;;;;;;;;16.50;16.00;;;;;10.70;60.51;102886.03;2056545;28;47059;-60
2022/01/29 01:01:51;;;;;;;;;13.75;13.75;;;;;10.71;60.35;102894.91;2056088;28;47424;-59
2022/01/29 01:02:51;;;;;;;;;15.25;13.25;;;;;10.71;60.49;102892.25;2054588;28;47684;-60
2022/01/29 01:03:52;;;;;;;;;17.00;17.00;;;;;10.70;60.43;102888.69;2053381;28;46257;-61
2022/01/29 01:04:52;;;;;;;;;13.75;13.25;;;;;10.71;60.47;102886.94;2055654;28;47251;-61
2022/01/29 01:05:52;;;;;;;;;16.50;14.75;;;;;10.70;60.33;102883.41;2056272;28;46273;-60
2022/01/29 01:06:53;;;;;;;;;17.25;15.75;;;;;10.70;60.61;102879.84;2056652;28;47039;-59
2022/01/29 01:07:53;;;;;;;;;13.25;13.25;;;;;10.69;60.45;102873.66;2056516;28;45377;-60
2022/01/29 01:08:54;;;;;;;;;16.75;14.00;;;;;10.69;60.72;102878.97;2056495;28;47482;-60
2022/01/29 01:09:54;;;;;;;;;14.25;13.50;;;;;10.69;60.43;102880.72;2056336;28;47701;-61
2022/01/29 01:10:55;;;;;;;;;15.50;14.25;;;;;10.68;60.61;102877.19;2056010;28;47754;-60
2022/01/29 01:11:55;;;;;;;;;11.25;11.00;;;;;10.67;60.69;102886.03;2056238;28;46310;-60
2022/01/29 01:12:56;;;;;;;;;19.00;14.50;;;;;10.68;60.66;102884.25;2056211;28;47405;-60
2022/01/29 01:13:56;;;;;;;;;14.75;13.50;;;;;10.67;60.74;102877.13;2056598;28;46994;-60
2022/01/29 01:14:57;;;;;;;;;18.00;18.00;;;;;10.67;61.02;102887.75;2056025;28;47190;-59
2022/01/29 01:15:58;;;;;;;;;15.25;13.50;;;;;10.65;60.79;102882.41;2051649;28;47399;-59
2022/01/29 01:16:58;;;;;;;;;14.00;13.00;;;;;10.66;60.89;102880.66;2059885;28;47954;-62
2022/01/29 01:17:59;;;;;;;;;11.00;11.00;;;;;10.64;60.78;102880.66;2058607;28;47521;-61
2022/01/29 01:19:00;;;;;;;;;17.75;16.00;;;;;10.65;61.15;102892.16;2050116;28;46496;-60
2022/01/29 01:20:05;;;;;;;;;15.40;15.00;;;;;10.64;60.89;102888.59;2055723;28;47417;-61
2022/01/29 01:21:05;;;;;;;;;15.00;13.40;;;;;10.63;61.00;102886.81;2054317;28;48111;-62
2022/01/29 01:22:06;;;;;;;;;13.75;13.75;;;;;10.63;61.24;102886.81;2051342;28;47439;-59
2022/01/29 01:23:06;;;;;;;;;17.75;16.25;;;;;10.63;61.03;102885.94;2057025;28;47752;-59
2022/01/29 01:24:07;;;;;;;;;17.00;14.25;;;;;10.63;61.17;102883.28;2054493;28;47511;-61
2022/01/29 01:25:10;;;;;;;;;14.50;14.50;;;;;10.63;61.27;102891.25;2051137;28;48045;-60
2022/01/29 01:26:10;;;;;;;;;15.20;14.00;;;;;10.60;61.12;102885.03;2051261;28;47204;-62
2022/01/29 01:27:11;;;;;;;;;15.00;15.00;;;;;10.61;61.45;102881.50;2056613;28;47109;-60
2022/01/29 01:28:11;;;;;;;;;15.50;14.50;;;;;10.60;61.28;102881.50;2050465;28;47132;-59
2022/01/29 01:29:12;;;;;;;;;16.00;16.00;;;;;10.58;61.45;102875.28;2050590;28;46897;-61
2022/01/29 01:30:12;;;;;;;;;13.25;11.00;;;;;10.59;61.49;102877.06;2052644;28;47612;-59
2022/01/29 01:31:13;;;;;;;;;15.50;15.50;;;;;10.58;61.47;102876.16;2049853;28;47720;-59
2022/01/29 01:32:13;;;;;;;;;17.00;17.00;;;;;10.59;61.76;102879.72;2050247;28;48457;-60
2022/01/29 01:33:14;;;;;;;;;19.25;16.25;;;;;10.60;61.89;102878.84;2053361;28;46870;-63
2022/01/29 01:34:17;;;;;;;;;17.25;15.50;;;;;10.59;61.75;102879.72;2052608;28;46925;-59
2022/01/29 01:35:23;;;;;;;;;17.80;16.40;;;;;10.57;62.08;102874.38;2052660;28;46652;-60
2022/01/29 01:36:25;;;;;;;;;18.20;18.00;;;;;10.58;61.76;102877.94;2054558;28;48399;-60
2022/01/29 01:37:37;;;;;;;;;16.60;13.40;;;;;10.56;62.15;102880.56;2053156;28;47386;-60
2022/01/29 01:38:47;;;;;;;;;15.00;15.00;;;;;10.56;62.14;102882.31;2056501;28;48015;-60
2022/01/29 01:39:47;;;;;;;;;14.00;14.00;;;;;10.56;62.21;102882.31;2053663;28;48545;-60
2022/01/29 01:40:56;;;;;;;;;14.50;13.75;;;;;10.55;62.18;102886.75;2053802;28;48178;-60
2022/01/29 01:42:04;;;;;;;;;17.80;16.20;;;;;10.56;62.48;102891.19;2052955;28;47323;-61
2022/01/29 01:43:04;;;;;;;;;13.20;13.20;;;;;10.55;62.18;102888.50;2050771;28;47191;-60
2022/01/29 01:44:09;;;;;;;;;15.25;14.75;;;;;10.56;62.25;102884.97;2055509;28;47099;-60
2022/01/29 01:45:10;;;;;;;;;17.00;16.20;;;;;10.55;62.88;102881.44;2056191;28;48360;-60
2022/01/29 01:46:10;;;;;;;;;16.20;15.00;;;;;10.54;62.70;102884.03;2050949;28;47389;-60
2022/01/29 01:47:12;;;;;;;;;17.75;17.50;;;;;10.54;62.43;102879.66;2050514;28;48170;-59
2022/01/29 01:48:12;;;;;;;;;17.20;16.40;;;;;10.54;62.60;102878.72;2050092;28;47507;-61
2022/01/29 01:49:14;;;;;;;;;14.50;14.00;;;;;10.53;62.60;102874.31;2052257;28;46919;-63
2022/01/29 01:50:15;;;;;;;;;19.00;18.60;;;;;10.52;62.77;102870.75;2050265;28;46563;-60
2022/01/29 01:51:17;;;;;;;;;18.50;16.25;;;;;10.52;62.95;102865.44;2049563;28;47474;-59
2022/01/29 01:52:17;;;;;;;;;18.80;17.20;;;;;10.51;63.15;102868.97;2053857;28;47357;-63
2022/01/29 01:53:18;;;;;;;;;16.50;16.50;;;;;10.51;63.08;102871.63;2056374;28;47651;-63
2022/01/29 01:54:18;;;;;;;;;10.50;10.25;;;;;10.52;62.98;102872.53;2055990;28;47161;-67
2022/01/29 01:55:19;;;;;;;;;20.50;19.25;;;;;10.52;62.96;102867.22;2055938;28;47654;-60
2022/01/29 01:56:19;;;;;;;;;19.50;16.50;;;;;10.52;63.23;102869.88;2055818;28;47557;-60
2022/01/29 01:57:20;;;;;;;;;19.25;18.75;;;;;10.51;63.42;102871.63;2056280;28;46928;-60
2022/01/29 01:58:20;;;;;;;;;21.75;18.50;;;;;10.51;63.38;102870.75;2056081;28;47552;-60
2022/01/29 01:59:21;;;;;;;;;20.50;19.00;;;;;10.51;63.43;102863.66;2055527;28;47302;-59
2022/01/29 02:00:21;;;;;;;;;18.50;18.00;;;;;10.51;63.45;102862.78;2055870;28;47266;-60
2022/01/29 02:01:22;;;;;;;;;19.75;18.50;;;;;10.50;63.10;102864.53;2056417;28;48222;-60
2022/01/29 02:02:23;;;;;;;;;21.75;19.75;;;;;10.51;63.63;102874.28;2055855;28;47219;-61
2022/01/29 02:03:23;;;;;;;;;20.25;19.75;;;;;10.52;63.15;102867.22;2055929;28;46551;-60
2022/01/29 02:04:24;;;;;;;;;15.75;15.75;;;;;10.51;63.58;102863.66;2055538;28;46254;-61
2022/01/29 02:05:25;;;;;;;;;18.25;17.00;;;;;10.53;63.62;102858.38;2055471;28;47273;-62
2022/01/29 02:06:26;;;;;;;;;19.60;18.60;;;;;10.52;63.38;102860.13;2056310;28;47422;-61
2022/01/29 02:07:27;;;;;;;;;21.40;18.40;;;;;10.52;63.82;102860.13;2055801;28;47640;-61
2022/01/29 02:08:28;;;;;;;;;16.60;13.80;;;;;10.52;63.83;102861.91;2056514;28;48002;-60
2022/01/29 02:09:30;;;;;;;;;23.00;20.25;;;;;10.52;63.58;102860.13;2055814;28;47309;-61
2022/01/29 02:10:30;;;;;;;;;17.60;15.80;;;;;10.52;63.75;102860.13;2055629;28;47629;-60
2022/01/29 02:11:31;;;;;;;;;14.75;14.50;;;;;10.53;63.68;102855.72;2055939;28;47624;-64
2022/01/29 02:12:34;;;;;;;;;16.50;16.25;;;;;10.53;63.81;102853.06;2056443;28;47829;-59
2022/01/29 02:13:34;;;;;;;;;17.40;16.80;;;;;10.53;63.80;102853.94;2055606;28;47260;-61
2022/01/29 02:14:35;;;;;;;;;17.50;15.50;;;;;10.54;63.77;102860.16;2056122;28;47049;-61
2022/01/29 02:15:36;;;;;;;;;18.75;15.50;;;;;10.54;63.52;102849.53;2056201;28;47692;-60
2022/01/29 02:16:38;;;;;;;;;15.00;15.00;;;;;10.54;63.95;102846.88;2055619;28;47189;-61
2022/01/29 02:17:38;;;;;;;;;15.00;12.60;;;;;10.53;63.97;102847.75;2055360;28;45258;-62
2022/01/29 02:18:39;;;;;;;;;20.75;16.00;;;;;10.52;63.62;102845.97;2055450;28;47481;-63
2022/01/29 02:19:39;;;;;;;;;15.00;15.00;;;;;10.53;63.90;102847.75;2055559;28;47605;-60
2022/01/29 02:20:40;;;;;;;;;20.00;17.25;;;;;10.52;63.90;102838.91;2063279;28;46915;-60
2022/01/29 02:21:41;;;;;;;;;18.40;18.40;;;;;10.52;64.07;102844.22;2055097;28;47239;-66
2022/01/29 02:22:43;;;;;;;;;22.00;16.75;;;;;10.53;63.93;102845.09;2056467;28;47607;-60
2022/01/29 02:23:43;;;;;;;;;18.60;16.60;;;;;10.53;63.92;102839.78;2056333;28;46920;-60
2022/01/29 02:24:44;;;;;;;;;16.25;15.75;;;;;10.52;64.24;102838.91;2055681;28;47340;-68
2022/01/29 02:25:49;;;;;;;;;16.50;16.00;;;;;10.53;63.89;102842.44;2056146;28;47666;-60
2022/01/29 02:26:51;;;;;;;;;20.60;18.60;;;;;10.52;64.15;102830.03;2056880;28;45953;-60
2022/01/29 02:27:52;;;;;;;;;21.20;19.00;;;;;10.51;64.20;102836.22;2055656;28;47181;-60
2022/01/29 02:28:54;;;;;;;;;18.20;18.00;;;;;10.51;64.33;102836.22;2055666;28;47651;-61
2022/01/29 02:29:55;;;;;;;;;18.00;17.00;;;;;10.51;64.02;102838.88;2055475;28;47075;-61
2022/01/29 02:31:01;;;;;;;;;18.00;15.00;;;;;10.51;64.15;102828.25;2055599;28;46666;-60
2022/01/29 02:32:03;;;;;;;;;16.20;15.00;;;;;10.51;64.15;102826.50;2053216;28;48196;-61
2022/01/29 02:33:11;;;;;;;;;13.60;13.40;;;;;10.51;64.20;102822.94;2054896;28;47458;-62
2022/01/29 02:34:12;;;;;;;;;14.80;12.20;;;;;10.51;64.54;102826.50;2053792;28;48331;-62
2022/01/29 02:35:12;;;;;;;;;16.00;15.25;;;;;10.51;64.18;102829.16;2053616;28;47754;-64
2022/01/29 02:36:13;;;;;;;;;14.75;14.75;;;;;10.52;64.05;102822.06;2052085;28;47525;-60
2022/01/29 02:37:13;;;;;;;;;17.75;15.50;;;;;10.52;64.16;102820.31;2049920;28;46955;-60
2022/01/29 02:38:17;;;;;;;;;18.25;17.00;;;;;10.53;64.36;102823.84;2049920;28;47203;-59
2022/01/29 02:39:21;;;;;;;;;14.60;14.60;;;;;10.51;64.19;102810.56;2052893;28;47151;-62
2022/01/29 02:40:22;;;;;;;;;15.40;14.40;;;;;10.52;64.25;102815.00;2049911;28;47949;-61
2022/01/29 02:41:24;;;;;;;;;17.60;17.00;;;;;10.52;64.00;102812.34;2053339;28;47273;-62
2022/01/29 02:42:24;;;;;;;;;17.20;14.80;;;;;10.53;64.09;102808.81;2050452;28;48264;-59
2022/01/29 02:43:42;;;;;;;;;13.50;13.50;;;;;10.54;63.97;102809.72;2053306;28;47083;-62
2022/01/29 02:44:42;;;;;;;;;19.60;16.80;;;;;10.54;64.24;102809.72;2057130;28;47784;-60
2022/01/29 02:45:44;;;;;;;;;15.50;12.50;;;;;10.54;63.98;102807.06;2056970;28;47109;-62
2022/01/29 02:47:49;;;;;;;;;17.60;17.00;;;;;10.52;64.41;102808.81;2055984;28;47868;-63
2022/01/29 02:48:52;;;;;;;;;17.00;16.00;;;;;10.51;64.42;102799.06;2055935;28;48099;-60
2022/01/29 02:49:52;;;;;;;;;17.00;17.00;;;;;10.52;64.01;102799.06;2056862;28;47236;-61
2022/01/29 02:50:54;;;;;;;;;15.50;15.50;;;;;10.52;64.54;102795.53;2057071;28;45228;-61
2022/01/29 02:51:58;;;;;;;;;19.00;15.00;;;;;10.54;64.04;102796.44;2057536;28;46015;-61
2022/01/29 02:52:58;;;;;;;;;15.40;15.00;;;;;10.53;64.29;102792.00;2056598;28;47303;-61
2022/01/29 02:53:59;;;;;;;;;18.50;18.25;;;;;10.53;64.23;102792.00;2054517;28;47011;-61
2022/01/29 02:55:00;;;;;;;;;16.25;13.50;;;;;10.51;64.16;102784.03;2057436;28;46844;-61
2022/01/29 02:56:03;;;;;;;;;15.00;15.00;;;;;10.51;64.46;102785.78;2057647;28;47726;-61
2022/01/29 02:57:05;;;;;;;;;14.20;14.20;;;;;10.51;64.15;102780.47;2057510;28;47385;-61
2022/01/29 02:58:05;;;;;;;;;19.40;15.20;;;;;10.52;64.33;102782.25;2056565;28;48200;-59
2022/01/29 02:59:06;;;;;;;;;16.75;16.25;;;;;10.51;64.34;102781.38;2057031;28;45187;-62
2022/01/29 03:00:10;;;;;;;;;14.00;13.25;;;;;10.52;64.42;102779.59;2055254;28;48373;-67
2022/01/29 03:01:10;;;;;;;;;17.00;14.00;;;;;10.52;64.47;102779.59;2057185;28;47607;-60
2022/01/29 03:02:11;;;;;;;;;10.75;10.75;;;;;10.52;64.32;102768.97;2057005;28;48155;-60
2022/01/29 03:03:11;;;;;;;;;14.50;13.25;;;;;10.52;64.41;102774.28;2056337;28;46390;-61
2022/01/29 03:04:12;;;;;;;;;11.00;9.00;;;;;10.51;64.35;102773.41;2057495;28;47258;-62
2022/01/29 03:05:12;;;;;;;;;10.00;10.00;;;;;10.51;64.06;102767.22;2056698;28;47165;-61
2022/01/29 03:06:12;;;;;;;;;16.25;15.25;;;;;10.50;64.29;102776.94;2056750;28;45877;-61
2022/01/29 03:07:13;;;;;;;;;13.00;12.75;;;;;10.49;64.33;102766.31;2056338;28;47785;-61
2022/01/29 03:08:14;;;;;;;;;12.25;11.00;;;;;10.50;64.27;102768.97;2055708;28;47851;-61
2022/01/29 03:09:14;;;;;;;;;17.75;17.25;;;;;10.49;64.29;102767.19;2052410;28;47385;-69
2022/01/29 03:10:15;;;;;;;;;14.50;14.00;;;;;10.49;64.25;102775.16;2056900;28;47133;-60
2022/01/29 03:11:19;;;;;;;;;15.00;15.00;;;;;10.49;64.47;102766.31;2056928;28;46784;-62
2022/01/29 03:12:19;;;;;;;;;12.00;11.20;;;;;10.49;64.61;102761.88;2057011;28;47695;-59
2022/01/29 03:13:20;;;;;;;;;13.25;12.25;;;;;10.47;64.09;102763.63;2056997;28;47247;-61
2022/01/29 03:14:20;;;;;;;;;17.50;16.00;;;;;10.48;64.47;102756.56;2057161;28;47201;-60
2022/01/29 03:15:21;;;;;;;;;13.25;11.75;;;;;10.48;64.59;102759.22;2056747;28;47459;-60
2022/01/29 03:16:21;;;;;;;;;14.25;13.00;;;;;10.47;64.59;102760.97;2054150;28;47023;-60
2022/01/29 03:17:21;;;;;;;;;10.00;10.00;;;;;10.47;64.83;102760.97;2057598;28;47313;-61
2022/01/29 03:18:22;;;;;;;;;13.00;10.75;;;;;10.47;64.74;102755.66;2056796;28;47325;-60
2022/01/29 03:19:22;;;;;;;;;11.75;11.50;;;;;10.47;64.50;102757.44;2055299;28;47328;-59
2022/01/29 03:20:23;;;;;;;;;8.75;8.25;;;;;10.47;64.72;102758.31;2053419;28;47475;-61
2022/01/29 03:21:24;;;;;;;;;14.75;14.75;;;;;10.47;64.77;102760.97;2051810;28;47165;-61
2022/01/29 03:22:25;;;;;;;;;10.75;10.75;;;;;10.48;64.41;102767.19;2056262;28;47287;-60
2022/01/29 03:23:25;;;;;;;;;12.00;11.75;;;;;10.47;64.83;102755.66;2056588;28;46420;-60
2022/01/29 03:24:25;;;;;;;;;14.25;12.50;;;;;10.48;64.56;102762.75;2056867;28;46238;-61
2022/01/29 03:25:26;;;;;;;;;14.00;13.75;;;;;10.47;64.60;102758.31;2054085;28;47685;-61
2022/01/29 03:26:27;;;;;;;;;12.50;10.00;;;;;10.48;64.68;102767.19;2051457;28;48005;-60
2022/01/29 03:27:27;;;;;;;;;19.00;13.75;;;;;10.47;64.80;102768.94;2051049;28;47948;-64
2022/01/29 03:28:28;;;;;;;;;14.00;12.67;;;;;10.48;64.68;102764.53;2053698;28;47155;-60
2022/01/29 03:29:28;;;;;;;;;17.75;13.50;;;;;10.47;64.58;102760.09;2054932;28;46967;-63
2022/01/29 03:30:29;;;;;;;;;13.00;13.00;;;;;10.46;64.55;102764.50;2057151;28;47360;-60
2022/01/29 03:31:29;;;;;;;;;11.00;11.00;;;;;10.45;64.54;102760.06;2056952;28;47602;-60
2022/01/29 03:32:30;;;;;;;;;11.00;10.25;;;;;10.46;64.69;102766.28;2054602;28;47415;-61
2022/01/29 03:33:30;;;;;;;;;10.00;10.00;;;;;10.44;64.94;102766.25;2057397;28;47892;-60
2022/01/29 03:34:30;;;;;;;;;15.00;11.25;;;;;10.44;64.66;102762.72;2057270;28;47312;-60
2022/01/29 03:35:31;;;;;;;;;15.50;13.00;;;;;10.43;64.64;102764.47;2056639;28;47702;-64
2022/01/29 03:36:31;;;;;;;;;13.50;11.50;;;;;10.44;64.82;102768.91;2052126;28;47603;-64
2022/01/29 03:37:32;;;;;;;;;10.25;10.00;;;;;10.45;64.94;102764.50;2056897;28;47716;-62
2022/01/29 03:38:33;;;;;;;;;12.00;12.00;;;;;10.45;64.69;102764.50;2052994;28;47924;-59
2022/01/29 03:39:35;;;;;;;;;15.25;12.75;;;;;10.45;64.93;102761.84;2050854;28;47972;-59
2022/01/29 03:40:36;;;;;;;;;10.80;10.20;;;;;10.45;64.98;102767.16;2051998;28;48483;-61
2022/01/29 03:41:37;;;;;;;;;16.50;14.75;;;;;10.45;64.87;102765.38;2052176;28;48233;-60
2022/01/29 03:42:46;;;;;;;;;14.20;13.00;;;;;10.45;65.15;102768.03;2050949;28;48235;-60
2022/01/29 03:43:50;;;;;;;;;13.00;11.80;;;;;10.46;64.95;102764.50;2053734;28;47522;-61
2022/01/29 03:44:51;;;;;;;;;10.25;10.25;;;;;10.47;64.85;102762.75;2050971;28;48503;-60
2022/01/29 03:45:51;;;;;;;;;14.75;13.00;;;;;10.47;64.80;102765.41;2050878;28;48241;-60
2022/01/29 03:46:52;;;;;;;;;11.75;10.50;;;;;10.47;65.08;102768.06;2058476;28;47995;-59
2022/01/29 03:47:52;;;;;;;;;9.50;9.50;;;;;10.46;64.92;102775.13;2058466;28;45306;-60
2022/01/29 03:48:52;;;;;;;;;15.00;13.00;;;;;10.47;65.12;102766.28;2051250;28;48309;-63
2022/01/29 03:49:53;;;;;;;;;8.25;8.00;;;;;10.48;64.98;102772.50;2050867;28;45573;-59
2022/01/29 03:50:53;;;;;;;;;10.75;10.75;;;;;10.48;64.92;102761.88;2050937;28;47490;-59
2022/01/29 03:51:54;;;;;;;;;6.50;6.50;;;;;10.47;64.84;102763.63;2051094;28;46998;-60
2022/01/29 03:52:54;;;;;;;;;12.25;12.25;;;;;10.49;65.04;102761.00;2050961;28;47584;-60
2022/01/29 03:53:55;;;;;;;;;12.50;12.25;;;;;10.48;65.09;102764.53;2052977;28;48029;-60
2022/01/29 03:54:55;;;;;;;;;12.25;10.75;;;;;10.48;65.13;102761.88;2050283;28;46841;-62
2022/01/29 03:55:56;;;;;;;;;13.00;13.00;;;;;10.48;65.16;102761.88;2050808;28;48376;-59
2022/01/29 03:56:56;;;;;;;;;15.75;12.75;;;;;10.47;65.17;102760.09;2050773;28;48071;-60
2022/01/29 03:57:56;;;;;;;;;13.50;12.25;;;;;10.47;65.17;102755.66;2050827;28;49107;-59
2022/01/29 03:58:57;;;;;;;;;11.50;9.75;;;;;10.47;65.21;102758.31;2050869;28;47107;-60
2022/01/29 03:59:57;;;;;;;;;10.50;10.50;;;;;10.47;65.07;102755.66;2049952;28;47383;-62
2022/01/29 04:00:58;;;;;;;;;13.00;10.75;;;;;10.47;65.08;102765.41;2050015;28;47463;-60
2022/01/29 04:01:58;;;;;;;;;10.00;10.00;;;;;10.47;65.41;102760.09;2050152;28;47372;-59
2022/01/29 04:02:58;;;;;;;;;12.75;12.50;;;;;10.49;65.20;102761.00;2050225;28;47224;-59
2022/01/29 04:03:59;;;;;;;;;14.00;14.00;;;;;10.49;65.46;102761.00;2050831;28;47687;-61
2022/01/29 04:04:59;;;;;;;;;10.25;10.25;;;;;10.50;65.37;102762.78;2050879;28;47280;-61
2022/01/29 04:06:00;;;;;;;;;12.33;11.67;;;;;10.50;65.30;102758.34;2050152;28;47212;-60
2022/01/29 04:07:06;;;;;;;;;13.50;11.25;;;;;10.50;65.56;102763.66;2050130;28;46055;-59
2022/01/29 04:08:14;;;;;;;;;15.20;12.20;;;;;10.50;65.50;102766.31;2050617;28;48626;-59
2022/01/29 04:09:14;;;;;;;;;10.25;10.00;;;;;10.51;65.48;102759.25;2055904;28;47321;-63
2022/01/29 04:10:16;;;;;;;;;11.00;10.00;;;;;10.50;65.29;102755.69;2056370;28;47431;-60
2022/01/29 04:11:17;;;;;;;;;15.80;14.20;;;;;10.51;65.52;102756.59;2050507;28;46760;-59
2022/01/29 04:12:18;;;;;;;;;13.00;12.80;;;;;10.51;65.57;102756.59;2051393;28;46995;-62
2022/01/29 04:13:23;;;;;;;;;12.00;12.00;;;;;10.51;65.32;102756.59;2053815;28;47723;-59
2022/01/29 04:14:23;;;;;;;;;14.20;10.40;;;;;10.51;65.59;102753.94;2050714;28;46171;-59
2022/01/29 04:15:24;;;;;;;;;11.33;11.00;;;;;10.50;65.69;102753.03;2053417;28;48600;-63
2022/01/29 04:16:24;;;;;;;;;14.33;14.33;;;;;10.51;65.55;102754.81;2051848;28;47442;-62
2022/01/29 04:17:24;;;;;;;;;13.25;13.25;;;;;10.52;65.53;102751.28;2051088;28;47217;-60
2022/01/29 04:18:25;;;;;;;;;15.67;13.00;;;;;10.51;65.49;102754.81;2050644;28;48443;-60
2022/01/29 04:19:25;;;;;;;;;12.33;10.67;;;;;10.53;65.73;102757.50;2050738;28;47271;-60
2022/01/29 04:20:26;;;;;;;;;14.33;13.67;;;;;10.52;65.54;102745.09;2050707;28;47149;-60
2022/01/29 04:21:26;;;;;;;;;14.00;14.00;;;;;10.54;65.69;102753.97;2050732;28;48211;-60
2022/01/29 04:22:26;;;;;;;;;13.67;10.67;;;;;10.53;65.89;102755.72;2050828;28;47039;-59
2022/01/29 04:23:27;;;;;;;;;9.33;9.33;;;;;10.53;65.39;102746.88;2050723;28;48376;-60
2022/01/29 04:24:27;;;;;;;;;14.67;14.00;;;;;10.54;65.85;102753.97;2050742;28;46248;-59
2022/01/29 04:25:28;;;;;;;;;11.33;10.67;;;;;10.54;65.70;102761.91;2050159;28;47375;-59
2022/01/29 04:26:33;;;;;;;;;12.25;12.25;;;;;10.55;65.77;102750.47;2050017;28;47024;-59
2022/01/29 04:27:39;;;;;;;;;15.25;11.25;;;;;10.55;65.95;102751.34;2050625;28;48423;-60
2022/01/29 04:28:42;;;;;;;;;16.00;16.00;;;;;10.56;65.70;102757.53;2053130;28;47526;-60
2022/01/29 04:29:55;;;;;;;;;10.00;9.75;;;;;10.56;65.50;102753.13;2055659;28;47729;-60
2022/01/29 04:31:00;;;;;;;;;12.50;10.75;;;;;10.55;65.68;102756.66;2056260;28;47901;-64
2022/01/29 04:32:09;;;;;;;;;13.50;13.50;;;;;10.56;65.76;102761.09;2056359;28;46913;-60
2022/01/29 04:33:43;;;;;;;;;10.75;10.75;;;;;10.56;65.71;102758.44;2054535;28;47304;-60
2022/01/29 04:34:36;;;;;;;;;12.00;11.50;;;;;10.58;65.49;102761.09;2055271;28;46689;-60
2022/01/29 04:35:36;;;;;;;;;14.00;11.67;;;;;10.57;65.67;102756.66;2056850;28;47309;-66
2022/01/29 04:36:37;;;;;;;;;13.25;11.75;;;;;10.57;65.74;102760.22;2057122;28;47647;-60
2022/01/29 04:37:37;;;;;;;;;14.33;12.00;;;;;10.56;65.97;102761.09;2056194;28;46736;-61
2022/01/29 04:38:38;;;;;;;;;12.00;10.33;;;;;10.57;65.91;102760.22;2056132;28;47101;-60
2022/01/29 04:39:38;;;;;;;;;12.75;10.75;;;;;10.57;66.10;102756.66;2056312;28;47190;-59
2022/01/29 04:40:39;;;;;;;;;12.50;12.50;;;;;10.57;65.79;102752.25;2057178;28;47076;-60